Qm Of London — ZCTD7 — position and weather

sailwx.info

Track history (hours):
 
Tides and Currents Weather Stations Pressure Air Temp Water Temp Dewpoint Dewpoint Depression Visibility Wind Speed Wind Dir Waves Ship Positions

Qm Of London

Last reported at 2014-Sep-16 10:11 UTC. Time now 2014-Sep-23 12:24 UTC.
Position N 43°49' E 007°47'.

Length 50 m; draft 2.6 m.

Type: Pleasure craft. MMSI: 319780000.

Date/timePositionNaut miles runAvg speedWind from/ knotsBaromVisibWave heightAir tempDewpointWater temp
2014-Sep-16 10:11N 43°49' E 007°47'1911.7
2014-Sep-16 08:33N 43°40' E 007°23'5 4.0
2014-Sep-16 07:22N 43°42' E 007°17'0 0.0
2014-Sep-16 06:23N 43°42' E 007°17'0 0.0
2014-Sep-16 05:29N 43°42' E 007°17'0 0.0
2014-Sep-16 04:30N 43°42' E 007°17'0 0.0
2014-Sep-16 03:31N 43°42' E 007°17'0 0.0
2014-Sep-16 02:31N 43°42' E 007°17'0 0.0
2014-Sep-16 01:32N 43°42' E 007°17'0 0.0
2014-Sep-16 00:33N 43°42' E 007°17'0 0.0
2014-Sep-15 23:33N 43°42' E 007°17'0 0.0
2014-Sep-15 22:28N 43°42' E 007°17'0 0.0
2014-Sep-15 21:29N 43°42' E 007°17'0 0.0
2014-Sep-15 20:29N 43°42' E 007°17'0 0.0
2014-Sep-15 19:30N 43°42' E 007°17'0 0.0
2014-Sep-15 18:31N 43°42' E 007°17'0 0.0
2014-Sep-15 17:25N 43°42' E 007°17'0 0.0
2014-Sep-15 16:14N 43°42' E 007°17'0 0.0
2014-Sep-15 15:33N 43°42' E 007°17'0 0.0
2014-Sep-15 14:33N 43°42' E 007°17'0 0.0
2014-Sep-15 13:28N 43°42' E 007°17'0 0.0
2014-Sep-15 12:29N 43°42' E 007°17'0 0.0
2014-Sep-15 11:17N 43°42' E 007°17'0 0.0
2014-Sep-15 10:30N 43°42' E 007°17'0 0.0
2014-Sep-15 09:31N 43°42' E 007°17'0 0.0
2014-Sep-15 08:25N 43°42' E 007°17'0 0.0
2014-Sep-15 07:32N 43°42' E 007°17'0 0.0
2014-Sep-15 06:33N 43°42' E 007°17'0 0.0
2014-Sep-15 05:33N 43°42' E 007°17'0 0.0
2014-Sep-15 04:28N 43°42' E 007°17'0 0.0
2014-Sep-15 03:29N 43°42' E 007°17'0 0.0
2014-Sep-15 02:29N 43°42' E 007°17'0 0.0
2014-Sep-15 01:24N 43°42' E 007°17'0 0.0
2014-Sep-15 00:31N 43°42' E 007°17'0 0.0
2014-Sep-14 23:31N 43°42' E 007°17'0 0.0
2014-Sep-14 22:32N 43°42' E 007°17'0 0.0
2014-Sep-14 21:33N 43°42' E 007°17'0 0.0
2014-Sep-14 20:21N 43°42' E 007°17'0 0.0
2014-Sep-14 19:28N 43°42' E 007°17'0 0.0
2014-Sep-14 18:29N 43°42' E 007°17'0 0.0
2014-Sep-14 17:29N 43°42' E 007°17'0 0.0
2014-Sep-14 16:24N 43°42' E 007°17'0 0.0
2014-Sep-14 15:25N 43°42' E 007°17'0 0.0
2014-Sep-14 14:14N 43°42' E 007°17'0 0.0
2014-Sep-14 13:14N 43°42' E 007°17'0 0.0
2014-Sep-14 12:33N 43°42' E 007°17'0 0.0
2014-Sep-14 11:34N 43°42' E 007°17'1 0.6
2014-Sep-14 10:33N 43°41' E 007°17'199 5.6
2014-Sep-12 23:08N 40°53' E 009°41'0 0.0
2014-Sep-12 14:11N 40°53' E 009°41'0 0.0
2014-Sep-12 08:09N 40°53' E 009°41'2 3.2
2014-Sep-12 07:30N 40°55' E 009°40'6 3.1
2014-Sep-12 05:30N 40°55' E 009°32'0 0.0
2014-Sep-12 04:31N 40°55' E 009°32'0 0.0
2014-Sep-12 02:32N 40°55' E 009°32'0 0.0
2014-Sep-12 01:33N 40°55' E 009°32'0 0.0
2014-Sep-11 23:28N 40°55' E 009°32'0 0.0
2014-Sep-11 22:23N 40°55' E 009°32'0 0.0
2014-Sep-11 20:30N 40°55' E 009°32'0 0.0
2014-Sep-11 19:31N 40°55' E 009°32'0 0.0
2014-Sep-11 17:32N 40°55' E 009°32'0 0.0
2014-Sep-11 16:33N 40°55' E 009°32'0 0.1
2014-Sep-11 14:22N 40°55' E 009°31'0 0.0
2014-Sep-11 13:32N 40°55' E 009°31'0 0.0
2014-Sep-11 11:24N 40°55' E 009°31'0 0.0
2014-Sep-11 10:31N 40°55' E 009°31'0 0.0
2014-Sep-11 08:17N 40°55' E 009°31'0 0.0
2014-Sep-11 07:33N 40°55' E 009°31'0 0.0
2014-Sep-11 05:13N 40°55' E 009°31'0 0.0
2014-Sep-11 04:29N 40°55' E 009°31'0 0.0
2014-Sep-11 02:12N 40°55' E 009°31'0 0.0
2014-Sep-11 01:31N 40°55' E 009°31'0 0.0
2014-Sep-10 23:11N 40°55' E 009°31'0 0.0
2014-Sep-10 22:33N 40°55' E 009°31'0 0.0
2014-Sep-10 20:05N 40°55' E 009°31'0 0.0
2014-Sep-10 19:32N 40°55' E 009°31'2 1.6
2014-Sep-10 18:33N 40°55' E 009°33'6 4.7
2014-Sep-10 17:19N 40°53' E 009°41'0 0.0
2014-Sep-10 14:33N 40°54' E 009°41'0 0.2
2014-Sep-10 13:30N 40°53' E 009°41'0 0.0
2014-Sep-10 10:29N 40°53' E 009°41'  
Track history (hours):
 
Tides and Currents Weather Stations Pressure Air Temp Water Temp Dewpoint Dewpoint Depression Visibility Wind Speed Wind Dir Waves Ship Positions

Qm Of London

Last reported at 2014-Sep-16 10:11 UTC. Time now 2014-Sep-23 12:24 UTC.
Position N 43°49' E 007°47'.

Length 50 m; draft 2.6 m.

Type: Pleasure craft. MMSI: 319780000.

Date/timePositionNaut miles runAvg speedWind from/ knotsBaromVisibWave heightAir tempDewpointWater temp
2014-Sep-16 10:11N 43°49' E 007°47'1911.7
2014-Sep-16 08:33N 43°40' E 007°23'5 4.0
2014-Sep-16 07:22N 43°42' E 007°17'0 0.0
2014-Sep-16 06:23N 43°42' E 007°17'0 0.0
2014-Sep-16 05:29N 43°42' E 007°17'0 0.0
2014-Sep-16 04:30N 43°42' E 007°17'0 0.0
2014-Sep-16 03:31N 43°42' E 007°17'0 0.0
2014-Sep-16 02:31N 43°42' E 007°17'0 0.0
2014-Sep-16 01:32N 43°42' E 007°17'0 0.0
2014-Sep-16 00:33N 43°42' E 007°17'0 0.0
2014-Sep-15 23:33N 43°42' E 007°17'0 0.0
2014-Sep-15 22:28N 43°42' E 007°17'0 0.0
2014-Sep-15 21:29N 43°42' E 007°17'0 0.0
2014-Sep-15 20:29N 43°42' E 007°17'0 0.0
2014-Sep-15 19:30N 43°42' E 007°17'0 0.0
2014-Sep-15 18:31N 43°42' E 007°17'0 0.0
2014-Sep-15 17:25N 43°42' E 007°17'0 0.0
2014-Sep-15 16:14N 43°42' E 007°17'0 0.0
2014-Sep-15 15:33N 43°42' E 007°17'0 0.0
2014-Sep-15 14:33N 43°42' E 007°17'0 0.0
2014-Sep-15 13:28N 43°42' E 007°17'0 0.0
2014-Sep-15 12:29N 43°42' E 007°17'0 0.0
2014-Sep-15 11:17N 43°42' E 007°17'0 0.0
2014-Sep-15 10:30N 43°42' E 007°17'0 0.0
2014-Sep-15 09:31N 43°42' E 007°17'0 0.0
2014-Sep-15 08:25N 43°42' E 007°17'0 0.0
2014-Sep-15 07:32N 43°42' E 007°17'0 0.0
2014-Sep-15 06:33N 43°42' E 007°17'0 0.0
2014-Sep-15 05:33N 43°42' E 007°17'0 0.0
2014-Sep-15 04:28N 43°42' E 007°17'0 0.0
2014-Sep-15 03:29N 43°42' E 007°17'0 0.0
2014-Sep-15 02:29N 43°42' E 007°17'0 0.0
2014-Sep-15 01:24N 43°42' E 007°17'0 0.0
2014-Sep-15 00:31N 43°42' E 007°17'0 0.0
2014-Sep-14 23:31N 43°42' E 007°17'0 0.0
2014-Sep-14 22:32N 43°42' E 007°17'0 0.0
2014-Sep-14 21:33N 43°42' E 007°17'0 0.0
2014-Sep-14 20:21N 43°42' E 007°17'0 0.0
2014-Sep-14 19:28N 43°42' E 007°17'0 0.0
2014-Sep-14 18:29N 43°42' E 007°17'0 0.0
2014-Sep-14 17:29N 43°42' E 007°17'0 0.0
2014-Sep-14 16:24N 43°42' E 007°17'0 0.0
2014-Sep-14 15:25N 43°42' E 007°17'0 0.0
2014-Sep-14 14:14N 43°42' E 007°17'0 0.0
2014-Sep-14 13:14N 43°42' E 007°17'0 0.0
2014-Sep-14 12:33N 43°42' E 007°17'0 0.0
2014-Sep-14 11:34N 43°42' E 007°17'1 0.6
2014-Sep-14 10:33N 43°41' E 007°17'199 5.6
2014-Sep-12 23:08N 40°53' E 009°41'0 0.0
2014-Sep-12 14:11N 40°53' E 009°41'0 0.0
2014-Sep-12 08:09N 40°53' E 009°41'2 3.2
2014-Sep-12 07:30N 40°55' E 009°40'6 3.1
2014-Sep-12 05:30N 40°55' E 009°32'0 0.0
2014-Sep-12 04:31N 40°55' E 009°32'0 0.0
2014-Sep-12 02:32N 40°55' E 009°32'0 0.0
2014-Sep-12 01:33N 40°55' E 009°32'0 0.0
2014-Sep-11 23:28N 40°55' E 009°32'0 0.0
2014-Sep-11 22:23N 40°55' E 009°32'0 0.0
2014-Sep-11 20:30N 40°55' E 009°32'0 0.0
2014-Sep-11 19:31N 40°55' E 009°32'0 0.0
2014-Sep-11 17:32N 40°55' E 009°32'0 0.0
2014-Sep-11 16:33N 40°55' E 009°32'0 0.1
2014-Sep-11 14:22N 40°55' E 009°31'0 0.0
2014-Sep-11 13:32N 40°55' E 009°31'0 0.0
2014-Sep-11 11:24N 40°55' E 009°31'0 0.0
2014-Sep-11 10:31N 40°55' E 009°31'0 0.0
2014-Sep-11 08:17N 40°55' E 009°31'0 0.0
2014-Sep-11 07:33N 40°55' E 009°31'0 0.0
2014-Sep-11 05:13N 40°55' E 009°31'0 0.0
2014-Sep-11 04:29N 40°55' E 009°31'0 0.0
2014-Sep-11 02:12N 40°55' E 009°31'0 0.0
2014-Sep-11 01:31N 40°55' E 009°31'0 0.0
2014-Sep-10 23:11N 40°55' E 009°31'0 0.0
2014-Sep-10 22:33N 40°55' E 009°31'0 0.0
2014-Sep-10 20:05N 40°55' E 009°31'0 0.0
2014-Sep-10 19:32N 40°55' E 009°31'2 1.6
2014-Sep-10 18:33N 40°55' E 009°33'6 4.7
2014-Sep-10 17:19N 40°53' E 009°41'0 0.0
2014-Sep-10 14:33N 40°54' E 009°41'0 0.2
2014-Sep-10 13:30N 40°53' E 009°41'0 0.0
2014-Sep-10 10:29N 40°53' E 009°41'  

Dump ship's entire track history